Time;durP1;ratioP1;P1;durP2;ratioP2;P2;SDS_P1;SDS_P2;PMS_P1;PMS_P2;Temp;Humidity;BMP_temperature;BMP_pressure;BME280_temperature;BME280_humidity;BME280_pressure;Samples;Min_cycle;Max_cycle;Signal;HPM_P1;HPM_P2
2021/11/23 00:01:07;;;;;;;12.93;5.47;;;2.80;99.90;;;;;;4984133;28;20019;-73
2021/11/23 00:03:33;;;;;;;11.95;5.18;;;2.80;99.90;;;;;;4983017;28;20014;-74
2021/11/23 00:05:58;;;;;;;15.70;5.53;;;2.80;99.90;;;;;;4963778;28;20037;-76
2021/11/23 00:08:24;;;;;;;19.63;5.25;;;2.80;99.90;;;;;;4982115;28;20480;-75
2021/11/23 00:10:50;;;;;;;18.05;5.82;;;2.90;99.90;;;;;;4982517;28;20387;-76
2021/11/23 00:13:17;;;;;;;11.45;4.78;;;2.90;99.90;;;;;;4982382;28;20037;-76
2021/11/23 00:15:43;;;;;;;13.50;4.88;;;3.00;99.90;;;;;;4981935;28;20023;-75
2021/11/23 00:18:12;;;;;;;11.93;5.25;;;3.00;99.90;;;;;;4981881;28;20031;-76
2021/11/23 00:20:38;;;;;;;;;;;3.00;99.90;;;;;;4982588;28;20023;-76
2021/11/23 00:23:03;;;;;;;12.88;4.32;;;3.10;99.90;;;;;;4964514;28;19945;-76
2021/11/23 00:25:30;;;;;;;15.68;5.75;;;3.10;99.90;;;;;;4982149;28;20019;-76
2021/11/23 00:27:56;;;;;;;13.60;4.93;;;3.10;99.90;;;;;;4981753;28;20058;-75
2021/11/23 00:30:24;;;;;;;15.98;4.78;;;3.10;99.90;;;;;;4964811;28;20466;-76
2021/11/23 00:32:50;;;;;;;14.32;5.40;;;3.10;99.90;;;;;;4981946;28;20054;-76
2021/11/23 00:35:18;;;;;;;9.50;4.03;;;3.20;99.90;;;;;;4964706;28;20066;-76
2021/11/23 00:37:46;;;;;;;15.68;5.35;;;3.20;99.90;;;;;;4982412;28;20018;-76
2021/11/23 00:40:12;;;;;;;12.32;4.05;;;3.20;99.90;;;;;;4964483;28;20030;-76
2021/11/23 00:42:37;;;;;;;9.85;3.80;;;3.20;99.90;;;;;;4963718;28;20030;-76
2021/11/23 00:45:05;;;;;;;12.85;4.43;;;3.20;99.90;;;;;;4964607;28;20026;-76
2021/11/23 00:47:30;;;;;;;12.50;4.57;;;3.30;99.90;;;;;;4964117;28;20030;-76
2021/11/23 00:49:56;;;;;;;12.30;4.72;;;3.30;99.90;;;;;;4981457;28;20031;-76
2021/11/23 00:52:21;;;;;;;11.75;4.05;;;3.30;99.90;;;;;;4981294;28;20023;-76
2021/11/23 00:54:47;;;;;;;14.77;5.35;;;3.40;99.90;;;;;;4977950;28;20037;-76
2021/11/23 00:57:13;;;;;;;12.73;4.65;;;3.40;99.90;;;;;;4978987;28;20514;-76
2021/11/23 00:59:39;;;;;;;12.25;4.63;;;3.40;99.90;;;;;;4961169;28;20066;-76
2021/11/23 01:02:05;;;;;;;11.88;4.78;;;3.50;99.90;;;;;;4960859;28;20019;-76
2021/11/23 01:04:31;;;;;;;13.13;5.07;;;3.50;99.90;;;;;;4978508;28;20046;-76
2021/11/23 01:06:57;;;;;;;11.77;4.38;;;3.50;99.90;;;;;;4977964;28;20041;-76
2021/11/23 01:09:23;;;;;;;10.77;4.30;;;3.60;99.90;;;;;;4977835;28;20114;-76
2021/11/23 01:11:48;;;;;;;13.73;4.60;;;3.60;99.90;;;;;;4978071;28;20437;-76
2021/11/23 01:14:14;;;;;;;13.77;4.22;;;3.60;99.90;;;;;;4977670;28;20046;-76
2021/11/23 01:16:44;;;;;;;13.07;4.07;;;3.70;99.90;;;;;;4978280;28;20061;-77
2021/11/23 01:19:10;;;;;;;12.75;4.65;;;3.70;99.90;;;;;;4977680;28;20373;-76
2021/11/23 01:21:36;;;;;;;10.25;4.03;;;3.70;99.90;;;;;;4960324;28;20412;-76
2021/11/23 01:24:03;;;;;;;14.48;4.72;;;3.80;99.90;;;;;;4960140;28;20061;-75
2021/11/23 01:26:28;;;;;;;13.48;4.32;;;3.80;99.90;;;;;;4977855;28;20026;-77
2021/11/23 01:28:54;;;;;;;10.85;4.22;;;3.90;99.90;;;;;;4977621;28;20110;-77
2021/11/23 01:31:19;;;;;;;18.40;4.43;;;3.90;99.90;;;;;;4977814;28;20584;-77
2021/11/23 01:33:45;;;;;;;14.32;3.72;;;4.00;99.90;;;;;;4977595;28;20062;-77
2021/11/23 01:36:10;;;;;;;13.77;4.78;;;4.00;99.90;;;;;;4960379;28;20058;-77
2021/11/23 01:38:37;;;;;;;10.70;3.92;;;4.00;99.90;;;;;;4959514;28;20031;-77
2021/11/23 01:41:03;;;;;;;8.73;3.25;;;4.10;99.90;;;;;;4959559;28;20019;-76
2021/11/23 01:43:29;;;;;;;15.32;3.25;;;4.10;99.90;;;;;;4977073;28;20522;-75
2021/11/23 01:45:54;;;;;;;9.60;2.70;;;4.10;99.90;;;;;;4959584;28;20492;-75
2021/11/23 01:48:20;;;;;;;7.07;3.25;;;4.20;99.90;;;;;;4959142;28;20019;-77
2021/11/23 01:50:46;;;;;;;14.35;3.55;;;4.20;99.90;;;;;;4976488;28;20517;-77
2021/11/23 01:53:11;;;;;;;13.98;3.28;;;4.20;99.90;;;;;;4976244;28;20027;-76
2021/11/23 01:55:40;;;;;;;10.60;3.97;;;4.20;99.90;;;;;;4976448;28;20107;-76
2021/11/23 01:58:08;;;;;;;6.68;2.75;;;4.30;99.90;;;;;;4975938;28;20026;-75
2021/11/23 02:00:34;;;;;;;7.03;2.72;;;4.40;99.90;;;;;;4976330;28;20037;-76
2021/11/23 02:03:00;;;;;;;8.27;2.83;;;4.40;99.90;;;;;;4976002;28;20400;-77
2021/11/23 02:05:26;;;;;;;9.63;2.90;;;4.40;99.90;;;;;;4974914;28;20027;-77
2021/11/23 02:07:51;;;;;;;8.90;3.20;;;4.40;99.90;;;;;;4976429;28;20027;-77
2021/11/23 02:10:17;;;;;;;8.85;3.30;;;4.50;99.90;;;;;;4975649;28;20081;-77
2021/11/23 02:12:43;;;;;;;7.10;2.78;;;4.50;99.90;;;;;;4958674;28;20023;-77
2021/11/23 02:15:10;;;;;;;11.70;3.17;;;4.60;99.90;;;;;;4976295;28;20034;-78
2021/11/23 02:17:36;;;;;;;7.80;2.67;;;4.70;99.90;;;;;;4976184;28;20158;-78
2021/11/23 02:20:06;;;;;;;8.88;1.98;;;4.70;99.90;;;;;;4976026;28;20117;-78
2021/11/23 02:22:32;;;;;;;6.03;2.25;;;4.70;99.90;;;;;;4958362;28;20065;-77
2021/11/23 02:24:57;;;;;;;8.00;2.88;;;4.70;99.90;;;;;;4975498;28;20019;-77
2021/11/23 02:27:23;;;;;;;12.68;2.50;;;4.70;99.90;;;;;;4958327;28;20023;-77
2021/11/23 02:29:48;;;;;;;7.72;1.92;;;4.80;99.90;;;;;;4975813;28;20116;-78
2021/11/23 02:32:14;;;;;;;7.00;1.95;;;4.80;99.90;;;;;;4958264;28;20019;-77
2021/11/23 02:34:39;;;;;;;9.07;2.42;;;4.80;99.90;;;;;;4975719;28;20430;-77
2021/11/23 02:37:05;;;;;;;9.57;2.40;;;4.90;99.90;;;;;;4975043;28;20027;-76
2021/11/23 02:39:34;;;;;;;7.55;1.83;;;4.90;99.90;;;;;;4958101;28;20027;-77
2021/11/23 02:41:59;;;;;;;4.50;1.60;;;4.90;99.90;;;;;;4958959;28;20387;-78
2021/11/23 02:44:25;;;;;;;5.65;1.15;;;4.90;99.90;;;;;;4975744;28;20030;-78
2021/11/23 02:46:51;;;;;;;5.93;2.08;;;5.00;99.90;;;;;;4975512;28;20031;-79
2021/11/23 02:49:20;;;;;;;5.25;1.85;;;5.00;99.90;;;;;;4958293;28;20072;-78
2021/11/23 02:51:45;;;;;;;6.50;1.70;;;5.00;99.90;;;;;;4975411;28;20495;-78
2021/11/23 02:54:11;;;;;;;4.30;1.75;;;5.00;99.90;;;;;;4958419;28;20027;-78
2021/11/23 02:56:36;;;;;;;5.13;1.45;;;5.10;99.90;;;;;;4957829;28;20031;-77
2021/11/23 02:59:02;;;;;;;5.75;1.55;;;5.10;99.90;;;;;;4957904;28;20387;-77
2021/11/23 03:01:28;;;;;;;4.82;1.80;;;5.10;99.90;;;;;;4975141;28;20023;-78
2021/11/23 03:03:55;;;;;;;7.68;1.25;;;5.20;99.90;;;;;;4958104;28;20077;-78
2021/11/23 03:06:21;;;;;;;9.10;1.45;;;5.20;99.90;;;;;;4974770;28;20034;-78
2021/11/23 03:08:49;;;;;;;4.75;1.15;;;5.20;99.90;;;;;;4975207;28;20077;-77
2021/11/23 03:11:16;;;;;;;17.20;1.88;;;5.30;99.90;;;;;;4974981;28;20029;-76
2021/11/23 03:13:42;;;;;;;7.93;1.55;;;5.30;99.90;;;;;;4958219;28;20106;-79
2021/11/23 03:16:08;;;;;;;5.35;1.30;;;5.30;99.90;;;;;;4957633;28;20079;-77
2021/11/23 03:18:34;;;;;;;5.85;1.23;;;5.30;99.90;;;;;;4974881;28;20015;-77
2021/11/23 03:20:59;;;;;;;6.20;1.20;;;5.40;99.90;;;;;;4957662;28;20427;-77
2021/11/23 03:23:25;;;;;;;4.32;1.02;;;5.30;99.90;;;;;;4974599;28;20062;-76
2021/11/23 03:25:51;;;;;;;5.88;1.15;;;5.40;99.90;;;;;;4974654;28;20033;-76
2021/11/23 03:28:17;;;;;;;3.63;0.95;;;5.40;99.90;;;;;;4974493;28;20019;-76
2021/11/23 03:30:43;;;;;;;4.15;0.70;;;5.40;99.90;;;;;;4974822;28;20038;-78
2021/11/23 03:33:09;;;;;;;5.97;1.05;;;5.40;99.90;;;;;;4974768;28;20169;-77
2021/11/23 03:35:41;;;;;;;6.40;1.05;;;5.40;99.90;;;;;;4975038;28;20074;-78
2021/11/23 03:38:09;;;;;;;8.80;1.60;;;5.50;99.90;;;;;;4974365;28;20034;-76
2021/11/23 03:40:38;;;;;;;4.95;0.73;;;5.50;99.90;;;;;;4974818;28;20029;-73
2021/11/23 03:43:06;;;;;;;6.00;1.15;;;5.50;99.90;;;;;;4975147;28;20095;-72
2021/11/23 03:45:35;;;;;;;6.95;1.40;;;5.50;99.90;;;;;;4974891;28;20027;-74
2021/11/23 03:48:02;;;;;;;2.72;0.70;;;5.60;99.90;;;;;;4975004;28;20081;-73
2021/11/23 03:50:28;;;;;;;6.15;1.38;;;5.60;99.90;;;;;;4957301;28;20030;-73
2021/11/23 03:52:56;;;;;;;9.05;1.30;;;5.60;99.90;;;;;;4974473;28;20102;-73
2021/11/23 03:55:22;;;;;;;5.25;0.90;;;5.60;99.90;;;;;;4974786;28;20109;-74
2021/11/23 03:57:50;;;;;;;2.35;0.85;;;5.70;99.90;;;;;;4974849;28;20070;-74
2021/11/23 04:00:18;;;;;;;2.53;0.80;;;5.70;99.90;;;;;;4974898;28;20026;-74
2021/11/23 04:02:45;;;;;;;3.40;0.70;;;5.70;99.90;;;;;;4974798;28;20027;-74
2021/11/23 04:05:11;;;;;;;2.90;0.95;;;5.70;99.90;;;;;;4957109;28;20488;-74
2021/11/23 04:07:40;;;;;;;7.65;1.30;;;5.70;99.90;;;;;;4957581;28;20026;-74
2021/11/23 04:10:07;;;;;;;5.35;1.05;;;5.80;99.90;;;;;;4957219;28;20027;-74
2021/11/23 04:12:32;;;;;;;8.30;1.75;;;5.80;99.90;;;;;;4957263;28;20034;-76
2021/11/23 04:14:58;;;;;;;5.65;1.20;;;5.80;99.90;;;;;;4975031;28;20372;-77
2021/11/23 04:17:24;;;;;;;3.08;1.02;;;5.80;99.90;;;;;;4956913;28;20033;-77
2021/11/23 04:19:49;;;;;;;1.63;0.60;;;5.90;99.90;;;;;;4974179;28;20132;-77
2021/11/23 04:22:15;;;;;;;5.90;0.45;;;5.90;99.90;;;;;;4974156;28;20101;-77
2021/11/23 04:24:40;;;;;;;11.43;1.35;;;5.90;99.90;;;;;;4974069;28;20035;-78
2021/11/23 04:27:06;;;;;;;3.90;0.98;;;5.90;99.90;;;;;;4956923;28;20046;-77
2021/11/23 04:29:34;;;;;;;4.78;1.15;;;5.90;99.90;;;;;;4977053;28;20063;-77
2021/11/23 04:31:59;;;;;;;4.22;0.90;;;6.00;99.90;;;;;;4977508;28;20033;-77
2021/11/23 04:34:25;;;;;;;2.72;0.63;;;6.00;99.90;;;;;;4977637;28;20031;-77
2021/11/23 04:36:50;;;;;;;3.38;1.13;;;6.00;99.90;;;;;;4960365;28;20077;-77
2021/11/23 04:39:16;;;;;;;1.52;0.80;;;6.00;99.90;;;;;;4977953;28;20491;-77
2021/11/23 04:41:42;;;;;;;3.65;0.80;;;6.10;99.90;;;;;;4977595;28;20546;-77
2021/11/23 04:44:08;;;;;;;2.58;0.95;;;6.10;99.90;;;;;;4977486;28;20019;-77
2021/11/23 04:46:34;;;;;;;2.50;0.82;;;6.10;99.90;;;;;;4960157;28;20078;-77
2021/11/23 04:49:00;;;;;;;4.38;0.98;;;6.10;99.90;;;;;;4977445;28;20403;-77
2021/11/23 04:51:26;;;;;;;3.67;0.65;;;6.10;99.90;;;;;;4977467;28;20101;-77
2021/11/23 04:53:51;;;;;;;3.63;0.35;;;6.40;99.90;;;;;;4959777;28;20084;-78
2021/11/23 04:56:17;;;;;;;5.70;1.50;;;6.10;99.90;;;;;;4977470;28;20388;-77
2021/11/23 04:58:43;;;;;;;2.95;0.90;;;6.10;99.90;;;;;;4977090;28;20026;-78
2021/11/23 05:01:09;;;;;;;4.70;0.43;;;6.10;99.90;;;;;;4959798;28;20023;-78
2021/11/23 05:03:34;;;;;;;3.15;0.65;;;6.20;99.90;;;;;;4977171;28;20099;-74
2021/11/23 05:06:00;;;;;;;1.77;0.82;;;6.10;99.90;;;;;;4960429;28;20034;-74
2021/11/23 05:08:25;;;;;;;1.58;0.65;;;6.20;99.90;;;;;;4978079;28;20027;-74
2021/11/23 05:10:51;;;;;;;3.92;0.60;;;6.20;99.90;;;;;;4960862;28;20041;-74
2021/11/23 05:13:17;;;;;;;2.05;0.65;;;6.20;99.90;;;;;;4977396;28;20500;-74
2021/11/23 05:15:43;;;;;;;1.02;0.22;;;6.20;99.90;;;;;;4960339;28;20066;-74
2021/11/23 05:18:08;;;;;;;4.03;0.82;;;6.20;99.90;;;;;;4977634;28;20396;-74
2021/11/23 05:20:34;;;;;;;5.32;0.52;;;6.30;99.90;;;;;;4976725;28;20530;-74
2021/11/23 05:23:00;;;;;;;1.40;0.20;;;6.30;99.90;;;;;;4977192;28;20038;-74
2021/11/23 05:25:25;;;;;;;5.03;0.75;;;6.30;99.90;;;;;;4959846;28;20027;-74
2021/11/23 05:27:51;;;;;;;6.38;0.90;;;6.30;99.90;;;;;;4977244;28;20073;-74
2021/11/23 05:30:17;;;;;;;3.30;0.20;;;6.30;99.90;;;;;;4977462;28;20099;-73
2021/11/23 05:32:43;;;;;;;1.95;0.28;;;6.30;99.90;;;;;;4960438;28;20031;-73
2021/11/23 05:35:10;;;;;;;1.85;0.10;;;6.30;99.90;;;;;;4977394;28;20463;-75
2021/11/23 05:37:36;;;;;;;7.88;1.15;;;6.30;99.90;;;;;;4959271;28;20034;-75
2021/11/23 05:40:02;;;;;;;2.75;0.30;;;6.30;99.90;;;;;;4975820;28;20039;-77
2021/11/23 05:42:28;;;;;;;4.10;0.47;;;6.40;99.90;;;;;;4976583;28;20023;-76
2021/11/23 05:44:53;;;;;;;2.78;0.40;;;6.40;99.90;;;;;;4976733;28;20476;-77
2021/11/23 05:47:19;;;;;;;3.17;0.25;;;6.40;99.90;;;;;;4959026;28;20027;-73
2021/11/23 05:49:45;;;;;;;3.95;0.38;;;6.40;99.90;;;;;;4977596;28;20027;-77
2021/11/23 05:52:11;;;;;;;3.80;0.43;;;6.40;99.90;;;;;;4976193;28;20039;-75
2021/11/23 05:54:36;;;;;;;3.92;0.28;;;6.40;99.90;;;;;;4976112;28;20031;-76
2021/11/23 05:57:02;;;;;;;4.82;0.47;;;6.40;99.90;;;;;;4958961;28;20084;-78
2021/11/23 05:59:28;;;;;;;4.10;0.30;;;6.40;99.90;;;;;;4976043;28;20027;-77
2021/11/23 06:01:53;;;;;;;3.72;0.25;;;6.40;99.90;;;;;;4958761;28;20040;-76
2021/11/23 06:04:19;;;;;;;4.28;0.30;;;6.40;99.90;;;;;;4958720;28;20026;-76
2021/11/23 06:06:44;;;;;;;3.45;0.20;;;6.40;99.90;;;;;;4975889;28;20125;-76
2021/11/23 06:09:10;;;;;;;2.78;0.17;;;6.40;99.90;;;;;;4958485;28;20030;-76
2021/11/23 06:11:36;;;;;;;3.92;0.60;;;6.50;99.90;;;;;;4958650;28;20027;-76
2021/11/23 06:14:02;;;;;;;3.92;0.30;;;6.40;99.90;;;;;;4975600;28;20037;-76
2021/11/23 06:16:29;;;;;;;3.17;0.40;;;6.40;99.90;;;;;;4975845;28;20082;-77
2021/11/23 06:18:55;;;;;;;3.20;0.30;;;6.40;99.90;;;;;;4975810;28;20031;-76
2021/11/23 06:21:21;;;;;;;1.95;0.20;;;6.40;99.90;;;;;;4958111;28;20487;-76
2021/11/23 06:23:47;;;;;;;4.43;0.60;;;6.40;99.90;;;;;;4960806;28;20027;-77
2021/11/23 06:26:13;;;;;;;6.25;0.30;;;6.40;99.90;;;;;;4975045;28;20023;-77
2021/11/23 06:28:38;;;;;;;5.10;0.40;;;6.40;99.90;;;;;;4975462;28;20122;-75
2021/11/23 06:31:04;;;;;;;3.92;1.35;;;6.40;99.90;;;;;;4975677;28;20033;-73
2021/11/23 06:33:30;;;;;;;2.58;0.50;;;6.50;99.90;;;;;;4975702;28;20019;-73
2021/11/23 06:35:55;;;;;;;1.23;0.43;;;6.50;99.90;;;;;;4975492;28;20023;-74
2021/11/23 06:38:21;;;;;;;2.13;0.68;;;6.50;99.90;;;;;;4957943;28;20034;-74
2021/11/23 06:40:47;;;;;;;2.47;0.30;;;6.50;99.90;;;;;;4975241;28;20038;-71
2021/11/23 06:43:13;;;;;;;4.75;0.65;;;6.50;99.90;;;;;;4975369;28;20041;-71
2021/11/23 06:45:40;;;;;;;5.03;0.32;;;6.50;99.90;;;;;;4975407;28;20467;-71
2021/11/23 06:48:10;;;;;;;9.98;0.40;;;6.50;99.90;;;;;;4976353;28;20050;-73
2021/11/23 06:50:36;;;;;;;3.85;0.60;;;6.50;99.90;;;;;;4957892;28;20035;-74
2021/11/23 06:53:04;;;;;;;2.55;0.52;;;6.50;99.90;;;;;;4975245;28;20031;-72
2021/11/23 06:55:30;;;;;;;7.57;0.40;;;6.50;99.90;;;;;;4958132;28;20027;-74
2021/11/23 06:57:57;;;;;;;1.85;0.20;;;6.50;99.90;;;;;;4958083;28;20030;-73
2021/11/23 07:00:22;;;;;;;3.92;0.80;;;6.50;99.90;;;;;;4975027;28;20030;-73
2021/11/23 07:02:48;;;;;;;3.90;0.80;;;6.50;99.90;;;;;;4975523;28;20023;-74
2021/11/23 07:05:14;;;;;;;6.55;0.70;;;6.60;99.90;;;;;;4975314;28;20054;-72
2021/11/23 07:07:39;;;;;;;5.05;0.80;;;6.60;99.90;;;;;;4960620;28;20034;-74
2021/11/23 07:10:10;;;;;;;3.70;1.17;;;6.60;99.90;;;;;;4980152;28;20066;-73
2021/11/23 07:12:36;;;;;;;5.85;0.55;;;6.60;99.90;;;;;;4975261;28;20023;-73
2021/11/23 07:15:06;;;;;;;6.28;0.88;;;6.70;99.90;;;;;;4976003;28;20027;-73
2021/11/23 07:17:32;;;;;;;2.20;0.63;;;6.70;99.90;;;;;;4958488;28;20035;-74
2021/11/23 07:19:58;;;;;;;2.70;0.70;;;6.70;99.90;;;;;;4957549;28;20038;-73
2021/11/23 07:22:24;;;;;;;4.10;1.02;;;6.70;99.90;;;;;;4975033;28;20452;-73
2021/11/23 07:24:49;;;;;;;3.72;0.80;;;6.70;99.90;;;;;;4957840;28;20019;-73
2021/11/23 07:27:15;;;;;;;4.03;0.60;;;6.80;99.90;;;;;;4957793;28;20121;-73
2021/11/23 07:29:41;;;;;;;2.20;0.50;;;6.80;99.90;;;;;;4957776;28;20439;-73
2021/11/23 07:32:07;;;;;;;4.45;0.80;;;6.90;99.90;;;;;;4975554;28;20030;-73
2021/11/23 07:34:34;;;;;;;5.75;0.60;;;6.90;99.90;;;;;;4957786;28;20093;-73
2021/11/23 07:37:00;;;;;;;3.63;0.68;;;6.90;99.90;;;;;;4975390;28;20041;-73
2021/11/23 07:39:28;;;;;;;3.30;0.55;;;6.90;99.90;;;;;;4974821;28;20027;-73
2021/11/23 07:41:55;;;;;;;3.97;0.63;;;6.90;99.90;;;;;;4957527;28;20077;-73
2021/11/23 07:44:20;;;;;;;5.10;0.70;;;6.90;99.90;;;;;;4957408;28;20048;-73
2021/11/23 07:46:46;;;;;;;4.18;0.65;;;7.00;99.90;;;;;;4974695;28;20037;-74
2021/11/23 07:49:12;;;;;;;4.43;1.30;;;7.00;99.90;;;;;;4974727;28;20027;-73
2021/11/23 07:51:38;;;;;;;4.18;0.75;;;7.00;99.90;;;;;;4974788;28;20035;-74
2021/11/23 07:54:04;;;;;;;2.13;0.50;;;7.00;99.90;;;;;;4974654;28;20027;-73
2021/11/23 07:56:29;;;;;;;3.42;1.20;;;7.10;99.90;;;;;;4974934;28;20443;-73
2021/11/23 07:58:55;;;;;;;2.53;1.13;;;7.10;99.90;;;;;;4974732;28;20027;-73
2021/11/23 08:01:21;;;;;;;5.07;0.90;;;7.10;99.90;;;;;;4957443;28;20165;-74
2021/11/23 08:03:46;;;;;;;6.57;1.05;;;7.10;99.90;;;;;;4978055;28;20384;-74
2021/11/23 08:06:12;;;;;;;2.30;1.08;;;7.10;99.90;;;;;;4961163;28;20460;-73
2021/11/23 08:08:39;;;;;;;3.35;0.88;;;7.20;99.90;;;;;;4960998;28;20047;-74
2021/11/23 08:11:05;;;;;;;4.20;0.93;;;7.20;99.90;;;;;;4978709;28;20360;-73
2021/11/23 08:13:31;;;;;;;4.07;0.90;;;7.20;99.90;;;;;;4961067;28;20030;-74
2021/11/23 08:15:56;;;;;;;5.18;1.30;;;7.30;99.90;;;;;;4978466;28;20033;-74
2021/11/23 08:18:22;;;;;;;5.03;1.58;;;7.30;99.90;;;;;;4961000;28;20023;-73
2021/11/23 08:20:47;;;;;;;4.22;1.75;;;7.30;99.90;;;;;;4978619;28;20463;-74
2021/11/23 08:23:14;;;;;;;7.25;1.88;;;7.40;99.90;;;;;;4978341;28;20399;-74
2021/11/23 08:25:39;;;;;;;6.75;1.52;;;7.40;99.90;;;;;;4961080;28;20117;-73
2021/11/23 08:28:06;;;;;;;8.07;2.45;;;7.40;99.90;;;;;;4978274;28;20118;-74
2021/11/23 08:30:32;;;;;;;6.82;1.40;;;7.50;99.90;;;;;;4978297;28;20059;-73
2021/11/23 08:32:58;;;;;;;7.00;1.75;;;7.50;99.90;;;;;;4961046;28;20033;-73
2021/11/23 08:35:23;;;;;;;15.10;2.05;;;7.60;99.90;;;;;;4960758;28;20026;-74
2021/11/23 08:37:50;;;;;;;6.72;1.63;;;7.70;99.90;;;;;;4978129;28;20027;-73
2021/11/23 08:40:15;;;;;;;13.93;2.75;;;7.80;99.90;;;;;;4977795;28;20026;-73
2021/11/23 08:42:41;;;;;;;7.40;1.42;;;7.90;99.90;;;;;;4960692;28;20034;-74
2021/11/23 08:45:08;;;;;;;5.65;2.25;;;8.00;99.90;;;;;;4978486;28;20357;-73
2021/11/23 08:47:34;;;;;;;6.38;1.55;;;8.00;99.90;;;;;;4977768;28;20023;-74
2021/11/23 08:50:00;;;;;;;5.53;1.63;;;8.00;99.90;;;;;;4960512;28;20030;-74
2021/11/23 08:52:26;;;;;;;5.75;1.38;;;8.10;99.90;;;;;;4977963;28;20043;-74
2021/11/23 08:54:53;;;;;;;7.53;0.95;;;8.10;99.90;;;;;;4977733;28;20480;-74
2021/11/23 08:57:19;;;;;;;3.75;0.90;;;8.20;99.90;;;;;;4977563;28;20093;-73
2021/11/23 08:59:44;;;;;;;3.25;0.98;;;8.20;99.90;;;;;;4960165;28;20023;-74
2021/11/23 09:02:15;;;;;;;6.13;0.93;;;8.20;99.90;;;;;;4977403;28;20027;-74
2021/11/23 09:04:41;;;;;;;2.92;0.75;;;8.30;99.90;;;;;;4960192;28;20026;-73
2021/11/23 09:07:09;;;;;;;5.47;1.23;;;8.30;99.90;;;;;;4977538;28;20117;-73
2021/11/23 09:09:38;;;;;;;4.03;1.52;;;8.40;99.90;;;;;;4977434;28;20391;-74
2021/11/23 09:12:04;;;;;;;;;;;8.50;99.90;;;;;;4960478;28;20122;-73
2021/11/23 09:14:32;;;;;;;4.75;0.82;;;8.50;99.90;;;;;;4976631;28;19906;-73
2021/11/23 09:16:58;;;;;;;6.40;0.73;;;8.60;99.90;;;;;;4960012;28;20090;-74
2021/11/23 09:19:25;;;;;;;4.05;1.20;;;8.70;99.90;;;;;;4959870;28;20031;-74
2021/11/23 09:21:52;;;;;;;6.05;1.10;;;8.70;99.90;;;;;;4977808;28;20178;-74
2021/11/23 09:24:17;;;;;;;3.55;0.80;;;8.80;99.90;;;;;;4977170;28;20027;-74
2021/11/23 09:26:44;;;;;;;2.95;0.70;;;8.90;99.90;;;;;;4977821;28;20073;-74
2021/11/23 09:29:10;;;;;;;5.35;1.63;;;8.90;99.90;;;;;;4959740;28;20071;-74
2021/11/23 09:31:36;;;;;;;3.75;0.73;;;9.00;99.90;;;;;;4977088;28;20422;-74
2021/11/23 09:34:02;;;;;;;7.30;0.75;;;9.10;99.90;;;;;;4977564;28;20057;-73
2021/11/23 09:36:27;;;;;;;4.70;1.00;;;9.10;99.90;;;;;;4977016;28;20023;-74
2021/11/23 09:38:53;;;;;;;4.32;1.08;;;9.20;99.90;;;;;;4976945;28;20124;-74
2021/11/23 09:41:18;;;;;;;5.15;0.63;;;9.30;99.90;;;;;;4959616;28;20027;-74
2021/11/23 09:43:44;;;;;;;4.97;1.25;;;9.30;99.90;;;;;;4976782;28;20023;-74
2021/11/23 09:46:10;;;;;;;2.92;0.22;;;9.40;99.90;;;;;;4959561;28;20073;-74
2021/11/23 09:48:41;;;;;;;4.82;0.30;;;9.60;99.90;;;;;;4976696;28;20073;-74
2021/11/23 09:51:26;;;;;;;3.38;0.40;;;9.70;99.90;;;;;;4976891;28;20037;-74
2021/11/23 09:53:53;;;;;;;1.70;0.35;;;9.80;99.90;;;;;;4976555;28;20399;-74
2021/11/23 09:56:19;;;;;;;2.50;0.35;;;9.70;99.90;;;;;;4976730;28;20023;-74
2021/11/23 09:58:45;;;;;;;2.25;0.60;;;9.60;99.90;;;;;;4959318;28;20089;-74
2021/11/23 10:01:12;;;;;;;6.55;0.73;;;9.60;99.90;;;;;;4976682;28;20039;-74
2021/11/23 10:03:39;;;;;;;10.90;0.80;;;9.50;99.90;;;;;;4976523;28;20023;-73
2021/11/23 10:06:18;;;;;;;4.40;0.35;;;9.40;99.90;;;;;;4976370;28;20122;-74
2021/11/23 10:08:45;;;;;;;1.45;0.10;;;9.40;99.90;;;;;;4977087;28;20030;-74
2021/11/23 10:11:19;;;;;;;3.17;0.20;;;9.50;99.90;;;;;;4976550;28;20027;-74
2021/11/23 10:13:48;;;;;;;7.40;0.60;;;9.60;99.90;;;;;;4976353;28;20022;-74
2021/11/23 10:16:16;;;;;;;0.35;0.10;;;9.70;99.90;;;;;;4976196;28;20388;-74
2021/11/23 10:18:41;;;;;;;2.40;0.43;;;9.90;99.90;;;;;;4976315;28;20035;-73
2021/11/23 10:21:10;;;;;;;1.55;0.17;;;10.00;99.90;;;;;;4958863;28;20396;-74
2021/11/23 10:23:37;;;;;;;;;;;10.10;99.90;;;;;;4959018;28;20057;-74
2021/11/23 10:26:14;;;;;;;3.38;0.10;;;10.20;99.90;;;;;;4975059;28;20306;-74
2021/11/23 10:28:55;;;;;;;2.30;0.20;;;10.30;99.90;;;;;;4976323;28;20023;-73
2021/11/23 10:31:24;;;;;;;1.30;0.13;;;10.40;99.90;;;;;;4976363;28;20080;-74
2021/11/23 10:34:03;;;;;;;2.63;0.25;;;10.50;99.90;;;;;;4975789;28;20047;-74
2021/11/23 10:36:31;;;;;;;1.50;0.15;;;10.60;99.90;;;;;;4975848;28;20027;-74
2021/11/23 10:39:09;;;;;;;1.95;0.65;;;10.80;99.90;;;;;;4975581;28;20487;-74
2021/11/23 10:41:35;;;;;;;2.63;0.15;;;10.80;99.90;;;;;;4975809;28;20027;-73
2021/11/23 10:44:02;;;;;;;5.50;0.90;;;10.80;99.90;;;;;;4958180;28;20094;-74
2021/11/23 10:46:31;;;;;;;2.00;0.15;;;10.70;99.90;;;;;;4975718;28;20045;-74
2021/11/23 10:49:00;;;;;;;2.30;0.00;;;10.70;99.90;;;;;;4975604;28;20471;-74
2021/11/23 10:51:35;;;;;;;;;;;10.50;99.90;;;;;;4976420;28;20547;-74
2021/11/23 10:54:15;;;;;;;0.75;0.15;;;10.40;99.90;;;;;;4975810;28;19992;-73
2021/11/23 10:56:55;;;;;;;3.65;0.30;;;10.20;99.90;;;;;;4975656;28;20055;-74
2021/11/23 10:59:21;;;;;;;1.67;0.43;;;10.10;99.90;;;;;;4975447;28;20058;-74
2021/11/23 11:01:47;;;;;;;3.10;0.22;;;9.90;99.90;;;;;;4975577;28;20026;-74
2021/11/23 11:04:14;;;;;;;0.80;0.00;;;9.80;99.90;;;;;;4957982;28;20026;-74
2021/11/23 11:06:41;;;;;;;1.10;0.00;;;9.60;99.90;;;;;;4975310;28;20030;-74
2021/11/23 11:09:08;;;;;;;0.38;0.20;;;9.60;99.90;;;;;;4975333;28;20546;-73
2021/11/23 11:11:35;;;;;;;2.50;0.00;;;9.60;99.90;;;;;;4975311;28;20447;-73
2021/11/23 11:14:01;;;;;;;2.85;0.00;;;9.50;99.90;;;;;;4958000;28;20015;-73
2021/11/23 11:16:27;;;;;;;0.17;0.00;;;9.50;99.90;;;;;;4957900;28;20069;-74
2021/11/23 11:19:10;;;;;;;4.53;0.00;;;9.50;99.90;;;;;;4974982;28;20019;-73
2021/11/23 11:22:03;;;;;;;2.72;0.05;;;9.50;99.90;;;;;;4975112;28;20416;-74
2021/11/23 11:24:38;;;;;;;0.40;0.00;;;9.60;99.90;;;;;;4975105;28;20030;-74
2021/11/23 11:27:12;;;;;;;4.35;0.00;;;9.70;99.90;;;;;;4975202;28;20471;-73
2021/11/23 11:29:39;;;;;;;1.33;0.00;;;9.70;99.90;;;;;;4974985;28;20098;-74
2021/11/23 11:32:06;;;;;;;1.40;0.00;;;9.80;99.90;;;;;;4975069;28;20484;-73
2021/11/23 11:34:36;;;;;;;4.38;0.00;;;9.90;99.90;;;;;;4974481;28;20399;-74
2021/11/23 11:37:06;;;;;;;3.90;0.00;;;10.00;99.90;;;;;;4974272;28;20439;-74
2021/11/23 11:39:38;;;;;;;0.57;0.00;;;10.00;99.90;;;;;;4974505;28;20026;-76
2021/11/23 11:42:20;;;;;;;4.90;0.00;;;10.10;99.90;;;;;;4974583;28;20097;-73
2021/11/23 11:44:50;;;;;;;0.52;0.00;;;10.10;99.90;;;;;;4974523;28;20026;-75
2021/11/23 11:47:20;;;;;;;2.72;0.35;;;10.20;99.90;;;;;;4974977;28;20102;-75
2021/11/23 11:49:49;;;;;;;0.82;0.20;;;10.30;99.90;;;;;;4974712;28;20139;-75
2021/11/23 11:52:15;;;;;;;0.90;0.00;;;10.30;99.90;;;;;;4957086;28;20038;-75
2021/11/23 11:54:41;;;;;;;2.42;0.20;;;10.40;99.90;;;;;;4974463;28;20475;-75
2021/11/23 11:57:29;;;;;;;1.67;0.00;;;10.40;99.90;;;;;;4974388;28;20173;-75
2021/11/23 11:59:54;;;;;;;2.33;0.40;;;10.50;99.90;;;;;;4957979;28;20019;-77
2021/11/23 12:02:22;;;;;;;0.17;0.00;;;10.60;99.90;;;;;;4957423;28;20118;-76
2021/11/23 12:04:58;;;;;;;1.88;0.00;;;10.60;99.90;;;;;;4974875;28;20030;-77
2021/11/23 12:07:38;;;;;;;0.10;0.00;;;10.70;99.90;;;;;;4957278;28;20031;-76
2021/11/23 12:10:17;;;;;;;7.80;0.57;;;10.90;99.90;;;;;;4974762;28;20058;-76
2021/11/23 12:12:51;;;;;;;0.47;0.05;;;11.00;99.90;;;;;;4957446;28;20082;-76
2021/11/23 12:15:29;;;;;;;1.13;0.00;;;11.00;99.90;;;;;;4974809;28;20059;-76
2021/11/23 12:18:09;;;;;;;1.75;0.00;;;11.00;99.90;;;;;;4975279;28;20058;-76
2021/11/23 12:20:47;;;;;;;1.50;0.00;;;11.00;99.90;;;;;;4974709;28;20106;-76
2021/11/23 12:23:39;;;;;;;3.38;0.28;;;11.10;99.90;;;;;;4957204;28;20019;-77
2021/11/23 12:26:10;;;;;;;3.20;0.00;;;11.10;99.90;;;;;;4974503;28;20015;-76
2021/11/23 12:28:36;;;;;;;0.95;0.00;;;11.00;99.90;;;;;;4974590;28;20114;-77
2021/11/23 12:31:10;;;;;;;0.38;0.00;;;11.10;99.90;;;;;;4974873;28;20054;-77
2021/11/23 12:33:50;;;;;;;2.58;0.00;;;11.20;99.90;;;;;;4974363;28;20503;-76
2021/11/23 12:36:21;;;;;;;1.10;0.00;;;11.30;99.90;;;;;;4974606;28;20031;-77
2021/11/23 12:38:48;;;;;;;3.65;0.38;;;11.30;99.90;;;;;;4974910;28;20567;-76
2021/11/23 12:41:19;;;;;;;1.85;0.00;;;11.40;99.90;;;;;;4974275;28;20106;-76
2021/11/23 12:43:47;;;;;;;3.63;0.10;;;11.30;99.90;;;;;;4974428;28;20034;-76
2021/11/23 12:46:20;;;;;;;0.97;0.00;;;11.40;99.90;;;;;;4956959;28;20019;-76
2021/11/23 12:48:47;;;;;;;3.20;0.00;;;11.40;99.90;;;;;;4974675;28;20037;-77
2021/11/23 12:51:23;;;;;;;0.80;0.00;;;11.40;99.90;;;;;;4977884;28;20030;-76
2021/11/23 12:53:55;;;;;;;7.47;0.15;;;11.40;99.90;;;;;;4960533;28;20058;-76
2021/11/23 12:56:21;;;;;;;0.55;0.20;;;11.30;99.90;;;;;;4978036;28;20435;-76